sensor_id;sensor_type;location;lat;lon;timestamp;temperature;humidity
19000;DHT22;9633;50.980;13.850;2023-03-23T00:01:07;10.30;99.90
19000;DHT22;9633;50.980;13.850;2023-03-23T00:02:40;10.30;99.90
19000;DHT22;9633;50.980;13.850;2023-03-23T00:04:14;10.30;99.90
19000;DHT22;9633;50.980;13.850;2023-03-23T00:05:46;10.40;99.90
19000;DHT22;9633;50.980;13.850;2023-03-23T00:07:21;10.30;99.90
19000;DHT22;9633;50.980;13.850;2023-03-23T00:08:54;10.50;99.90
19000;DHT22;9633;50.980;13.850;2023-03-23T00:10:29;10.60;99.90
19000;DHT22;9633;50.980;13.850;2023-03-23T00:12:03;10.70;99.90
19000;DHT22;9633;50.980;13.850;2023-03-23T00:13:36;10.70;99.90
19000;DHT22;9633;50.980;13.850;2023-03-23T00:15:09;10.70;99.90
19000;DHT22;9633;50.980;13.850;2023-03-23T00:16:44;10.70;99.90
19000;DHT22;9633;50.980;13.850;2023-03-23T00:18:18;10.70;99.90
19000;DHT22;9633;50.980;13.850;2023-03-23T00:19:51;10.80;99.90
19000;DHT22;9633;50.980;13.850;2023-03-23T00:21:25;10.90;99.90
19000;DHT22;9633;50.980;13.850;2023-03-23T00:23:04;10.90;99.90
19000;DHT22;9633;50.980;13.850;2023-03-23T00:24:37;11.20;99.90
19000;DHT22;9633;50.980;13.850;2023-03-23T00:26:09;11.30;99.90
19000;DHT22;9633;50.980;13.850;2023-03-23T00:27:41;11.60;99.90
19000;DHT22;9633;50.980;13.850;2023-03-23T00:29:16;12.00;99.90
19000;DHT22;9633;50.980;13.850;2023-03-23T00:30:49;12.40;99.90
19000;DHT22;9633;50.980;13.850;2023-03-23T00:32:28;12.70;99.90
19000;DHT22;9633;50.980;13.850;2023-03-23T00:34:02;12.80;99.90
19000;DHT22;9633;50.980;13.850;2023-03-23T00:35:35;13.00;99.90
19000;DHT22;9633;50.980;13.850;2023-03-23T00:37:06;13.00;99.90
19000;DHT22;9633;50.980;13.850;2023-03-23T00:38:40;13.00;99.90
19000;DHT22;9633;50.980;13.850;2023-03-23T00:40:14;13.00;99.90
19000;DHT22;9633;50.980;13.850;2023-03-23T00:41:47;13.10;99.90
19000;DHT22;9633;50.980;13.850;2023-03-23T00:43:20;13.10;99.90
19000;DHT22;9633;50.980;13.850;2023-03-23T00:44:55;13.20;99.90
19000;DHT22;9633;50.980;13.850;2023-03-23T00:46:30;13.10;99.90
19000;DHT22;9633;50.980;13.850;2023-03-23T00:48:03;13.10;99.90
19000;DHT22;9633;50.980;13.850;2023-03-23T00:49:36;13.10;99.90
19000;DHT22;9633;50.980;13.850;2023-03-23T00:51:08;13.00;99.90
19000;DHT22;9633;50.980;13.850;2023-03-23T00:52:43;13.00;99.90
19000;DHT22;9633;50.980;13.850;2023-03-23T00:54:15;13.00;99.90
19000;DHT22;9633;50.980;13.850;2023-03-23T00:55:48;13.00;99.90
19000;DHT22;9633;50.980;13.850;2023-03-23T00:57:21;13.10;99.90
19000;DHT22;9633;50.980;13.850;2023-03-23T00:58:55;13.10;99.90
19000;DHT22;9633;50.980;13.850;2023-03-23T01:00:27;12.90;99.90
19000;DHT22;9633;50.980;13.850;2023-03-23T01:01:59;12.90;99.90
19000;DHT22;9633;50.980;13.850;2023-03-23T01:03:33;12.80;99.90
19000;DHT22;9633;50.980;13.850;2023-03-23T01:05:06;12.60;99.90
19000;DHT22;9633;50.980;13.850;2023-03-23T01:06:40;12.50;99.90
19000;DHT22;9633;50.980;13.850;2023-03-23T01:08:14;12.40;99.90
19000;DHT22;9633;50.980;13.850;2023-03-23T01:09:45;12.40;99.90
19000;DHT22;9633;50.980;13.850;2023-03-23T01:11:17;12.30;99.90
19000;DHT22;9633;50.980;13.850;2023-03-23T01:12:49;12.20;99.90
19000;DHT22;9633;50.980;13.850;2023-03-23T01:14:21;12.20;99.90
19000;DHT22;9633;50.980;13.850;2023-03-23T01:15:54;12.20;99.90
19000;DHT22;9633;50.980;13.850;2023-03-23T01:17:26;12.20;99.90
19000;DHT22;9633;50.980;13.850;2023-03-23T01:19:00;12.10;99.90
19000;DHT22;9633;50.980;13.850;2023-03-23T01:20:32;12.00;99.90
19000;DHT22;9633;50.980;13.850;2023-03-23T01:22:03;11.90;99.90
19000;DHT22;9633;50.980;13.850;2023-03-23T01:23:35;11.90;99.90
19000;DHT22;9633;50.980;13.850;2023-03-23T01:25:09;11.90;99.90
19000;DHT22;9633;50.980;13.850;2023-03-23T01:26:42;11.90;99.90
19000;DHT22;9633;50.980;13.850;2023-03-23T01:28:14;11.90;99.90
19000;DHT22;9633;50.980;13.850;2023-03-23T01:29:46;11.80;99.90
19000;DHT22;9633;50.980;13.850;2023-03-23T01:31:21;11.80;99.90
19000;DHT22;9633;50.980;13.850;2023-03-23T01:32:54;11.80;99.90
19000;DHT22;9633;50.980;13.850;2023-03-23T01:34:28;11.80;99.90
19000;DHT22;9633;50.980;13.850;2023-03-23T01:36:03;11.80;99.90
19000;DHT22;9633;50.980;13.850;2023-03-23T01:37:34;11.70;99.90
19000;DHT22;9633;50.980;13.850;2023-03-23T01:39:07;11.70;99.90
19000;DHT22;9633;50.980;13.850;2023-03-23T01:40:39;11.80;99.90
19000;DHT22;9633;50.980;13.850;2023-03-23T01:42:10;11.80;99.90
19000;DHT22;9633;50.980;13.850;2023-03-23T01:44:01;11.80;99.90
19000;DHT22;9633;50.980;13.850;2023-03-23T01:45:39;11.70;99.90
19000;DHT22;9633;50.980;13.850;2023-03-23T01:47:11;11.80;99.90
19000;DHT22;9633;50.980;13.850;2023-03-23T01:48:42;11.90;99.90
19000;DHT22;9633;50.980;13.850;2023-03-23T01:50:17;11.90;99.90
19000;DHT22;9633;50.980;13.850;2023-03-23T01:51:53;11.70;99.90
19000;DHT22;9633;50.980;13.850;2023-03-23T01:53:29;11.70;99.90
19000;DHT22;9633;50.980;13.850;2023-03-23T01:55:03;11.50;99.90
19000;DHT22;9633;50.980;13.850;2023-03-23T01:56:40;11.60;99.90
19000;DHT22;9633;50.980;13.850;2023-03-23T01:58:17;11.60;99.90
19000;DHT22;9633;50.980;13.850;2023-03-23T01:59:52;11.50;99.90
19000;DHT22;9633;50.980;13.850;2023-03-23T02:01:28;11.40;99.90
19000;DHT22;9633;50.980;13.850;2023-03-23T02:03:00;11.40;99.90
19000;DHT22;9633;50.980;13.850;2023-03-23T02:04:36;11.30;99.90
19000;DHT22;9633;50.980;13.850;2023-03-23T02:06:10;11.20;99.90
19000;DHT22;9633;50.980;13.850;2023-03-23T02:07:58;11.20;99.90
19000;DHT22;9633;50.980;13.850;2023-03-23T02:09:35;11.20;99.90
19000;DHT22;9633;50.980;13.850;2023-03-23T02:11:14;11.20;99.90
19000;DHT22;9633;50.980;13.850;2023-03-23T02:12:46;11.10;99.90
19000;DHT22;9633;50.980;13.850;2023-03-23T02:14:19;11.10;99.90
19000;DHT22;9633;50.980;13.850;2023-03-23T02:15:59;11.20;99.90
19000;DHT22;9633;50.980;13.850;2023-03-23T02:17:39;11.20;99.90
19000;DHT22;9633;50.980;13.850;2023-03-23T02:19:30;11.10;99.90
19000;DHT22;9633;50.980;13.850;2023-03-23T02:25:29;11.10;99.90
19000;DHT22;9633;50.980;13.850;2023-03-23T02:27:08;11.30;99.90
19000;DHT22;9633;50.980;13.850;2023-03-23T02:29:03;11.30;99.90
19000;DHT22;9633;50.980;13.850;2023-03-23T02:31:10;11.30;99.90
19000;DHT22;9633;50.980;13.850;2023-03-23T02:33:13;11.30;99.90
19000;DHT22;9633;50.980;13.850;2023-03-23T02:34:49;11.30;99.90
19000;DHT22;9633;50.980;13.850;2023-03-23T02:36:26;11.30;99.90
19000;DHT22;9633;50.980;13.850;2023-03-23T02:38:04;11.30;99.90
19000;DHT22;9633;50.980;13.850;2023-03-23T02:39:40;11.20;99.90
19000;DHT22;9633;50.980;13.850;2023-03-23T02:41:15;11.40;99.90
19000;DHT22;9633;50.980;13.850;2023-03-23T02:42:52;11.30;99.90
19000;DHT22;9633;50.980;13.850;2023-03-23T02:44:27;11.20;99.90
19000;DHT22;9633;50.980;13.850;2023-03-23T02:46:04;11.20;99.90
19000;DHT22;9633;50.980;13.850;2023-03-23T02:47:38;11.10;99.90
19000;DHT22;9633;50.980;13.850;2023-03-23T02:49:15;11.00;99.90
19000;DHT22;9633;50.980;13.850;2023-03-23T02:50:51;11.00;99.90
19000;DHT22;9633;50.980;13.850;2023-03-23T02:52:26;10.90;99.90
19000;DHT22;9633;50.980;13.850;2023-03-23T02:53:59;11.00;99.90
19000;DHT22;9633;50.980;13.850;2023-03-23T02:55:32;11.10;99.90
19000;DHT22;9633;50.980;13.850;2023-03-23T02:57:08;11.10;99.90
19000;DHT22;9633;50.980;13.850;2023-03-23T02:58:44;11.10;99.90
19000;DHT22;9633;50.980;13.850;2023-03-23T03:00:16;11.00;99.90
19000;DHT22;9633;50.980;13.850;2023-03-23T03:02:00;11.10;99.90
19000;DHT22;9633;50.980;13.850;2023-03-23T03:03:33;11.10;99.90
19000;DHT22;9633;50.980;13.850;2023-03-23T03:05:13;11.10;99.90
19000;DHT22;9633;50.980;13.850;2023-03-23T03:06:54;11.10;99.90
19000;DHT22;9633;50.980;13.850;2023-03-23T03:08:34;11.20;99.90
19000;DHT22;9633;50.980;13.850;2023-03-23T03:10:13;11.30;99.90
19000;DHT22;9633;50.980;13.850;2023-03-23T03:11:50;11.40;99.90
19000;DHT22;9633;50.980;13.850;2023-03-23T03:13:31;11.40;99.90
19000;DHT22;9633;50.980;13.850;2023-03-23T03:15:15;11.40;99.90
19000;DHT22;9633;50.980;13.850;2023-03-23T03:16:53;11.40;99.90
19000;DHT22;9633;50.980;13.850;2023-03-23T03:18:31;11.50;99.90
19000;DHT22;9633;50.980;13.850;2023-03-23T03:20:10;11.50;99.90
19000;DHT22;9633;50.980;13.850;2023-03-23T03:21:46;11.50;99.90
19000;DHT22;9633;50.980;13.850;2023-03-23T03:23:25;11.50;99.90
19000;DHT22;9633;50.980;13.850;2023-03-23T03:25:01;11.60;99.90
19000;DHT22;9633;50.980;13.850;2023-03-23T03:26:34;11.70;99.90
19000;DHT22;9633;50.980;13.850;2023-03-23T03:28:23;11.70;99.90
19000;DHT22;9633;50.980;13.850;2023-03-23T03:29:59;11.80;99.90
19000;DHT22;9633;50.980;13.850;2023-03-23T03:31:36;11.90;99.90
19000;DHT22;9633;50.980;13.850;2023-03-23T03:33:10;12.00;99.90
19000;DHT22;9633;50.980;13.850;2023-03-23T03:34:42;12.00;99.90
19000;DHT22;9633;50.980;13.850;2023-03-23T03:36:19;12.00;99.90
19000;DHT22;9633;50.980;13.850;2023-03-23T03:37:52;12.00;99.90
19000;DHT22;9633;50.980;13.850;2023-03-23T03:39:26;12.00;99.90
19000;DHT22;9633;50.980;13.850;2023-03-23T03:40:58;11.90;99.90
19000;DHT22;9633;50.980;13.850;2023-03-23T03:42:30;12.00;99.90
19000;DHT22;9633;50.980;13.850;2023-03-23T03:44:02;11.90;99.90
19000;DHT22;9633;50.980;13.850;2023-03-23T03:45:34;11.90;99.90
19000;DHT22;9633;50.980;13.850;2023-03-23T03:47:06;11.90;99.90
19000;DHT22;9633;50.980;13.850;2023-03-23T03:48:38;11.80;99.90
19000;DHT22;9633;50.980;13.850;2023-03-23T03:50:10;11.80;99.90
19000;DHT22;9633;50.980;13.850;2023-03-23T03:51:43;11.90;99.90
19000;DHT22;9633;50.980;13.850;2023-03-23T03:53:23;11.90;99.90
19000;DHT22;9633;50.980;13.850;2023-03-23T03:54:55;12.00;99.90
19000;DHT22;9633;50.980;13.850;2023-03-23T03:56:27;11.90;99.90
19000;DHT22;9633;50.980;13.850;2023-03-23T03:58:19;12.00;99.90
19000;DHT22;9633;50.980;13.850;2023-03-23T04:00:09;12.00;99.90
19000;DHT22;9633;50.980;13.850;2023-03-23T04:01:45;12.00;99.90
19000;DHT22;9633;50.980;13.850;2023-03-23T04:03:17;12.10;99.90
19000;DHT22;9633;50.980;13.850;2023-03-23T04:04:59;12.20;99.90
19000;DHT22;9633;50.980;13.850;2023-03-23T04:06:35;12.20;99.90
19000;DHT22;9633;50.980;13.850;2023-03-23T04:08:10;12.20;99.90
19000;DHT22;9633;50.980;13.850;2023-03-23T04:09:42;12.10;99.90
19000;DHT22;9633;50.980;13.850;2023-03-23T04:11:17;12.00;99.90
19000;DHT22;9633;50.980;13.850;2023-03-23T04:12:49;12.00;99.90
19000;DHT22;9633;50.980;13.850;2023-03-23T04:14:40;11.90;99.90
19000;DHT22;9633;50.980;13.850;2023-03-23T04:16:12;11.90;99.90
19000;DHT22;9633;50.980;13.850;2023-03-23T04:17:47;11.90;99.90
19000;DHT22;9633;50.980;13.850;2023-03-23T04:19:20;11.80;99.90
19000;DHT22;9633;50.980;13.850;2023-03-23T04:20:52;11.70;99.90
19000;DHT22;9633;50.980;13.850;2023-03-23T04:22:30;11.80;99.90
19000;DHT22;9633;50.980;13.850;2023-03-23T04:24:06;11.80;99.90
19000;DHT22;9633;50.980;13.850;2023-03-23T04:25:39;11.70;99.90
19000;DHT22;9633;50.980;13.850;2023-03-23T04:27:12;11.70;99.90
19000;DHT22;9633;50.980;13.850;2023-03-23T04:28:45;11.70;99.90
19000;DHT22;9633;50.980;13.850;2023-03-23T04:30:46;11.60;99.90
19000;DHT22;9633;50.980;13.850;2023-03-23T04:32:20;11.60;99.90
19000;DHT22;9633;50.980;13.850;2023-03-23T04:33:56;11.60;99.90
19000;DHT22;9633;50.980;13.850;2023-03-23T04:35:34;11.60;99.90
19000;DHT22;9633;50.980;13.850;2023-03-23T04:37:29;11.70;99.90
19000;DHT22;9633;50.980;13.850;2023-03-23T04:39:02;11.70;99.90
19000;DHT22;9633;50.980;13.850;2023-03-23T04:40:42;11.60;99.90
19000;DHT22;9633;50.980;13.850;2023-03-23T04:42:38;11.60;99.90
19000;DHT22;9633;50.980;13.850;2023-03-23T04:44:29;11.60;99.90
19000;DHT22;9633;50.980;13.850;2023-03-23T04:46:15;11.40;99.90
19000;DHT22;9633;50.980;13.850;2023-03-23T04:47:51;11.40;99.90
19000;DHT22;9633;50.980;13.850;2023-03-23T04:49:32;11.40;99.90
19000;DHT22;9633;50.980;13.850;2023-03-23T04:51:18;11.40;99.90
19000;DHT22;9633;50.980;13.850;2023-03-23T04:52:54;11.30;99.90
19000;DHT22;9633;50.980;13.850;2023-03-23T04:54:28;11.40;99.90
19000;DHT22;9633;50.980;13.850;2023-03-23T04:56:05;11.50;99.90
19000;DHT22;9633;50.980;13.850;2023-03-23T04:57:44;11.40;99.90
19000;DHT22;9633;50.980;13.850;2023-03-23T04:59:38;11.40;99.90
19000;DHT22;9633;50.980;13.850;2023-03-23T05:01:16;11.40;99.90
19000;DHT22;9633;50.980;13.850;2023-03-23T05:03:21;11.40;99.90
19000;DHT22;9633;50.980;13.850;2023-03-23T05:04:57;11.40;99.90
19000;DHT22;9633;50.980;13.850;2023-03-23T05:06:32;11.40;99.90
19000;DHT22;9633;50.980;13.850;2023-03-23T05:08:10;11.40;99.90
19000;DHT22;9633;50.980;13.850;2023-03-23T05:09:47;11.30;99.90
19000;DHT22;9633;50.980;13.850;2023-03-23T05:11:20;11.40;99.90
19000;DHT22;9633;50.980;13.850;2023-03-23T05:12:53;11.50;99.90
19000;DHT22;9633;50.980;13.850;2023-03-23T05:14:25;11.50;99.90
19000;DHT22;9633;50.980;13.850;2023-03-23T05:16:10;11.50;99.90
19000;DHT22;9633;50.980;13.850;2023-03-23T05:17:44;11.50;99.90
19000;DHT22;9633;50.980;13.850;2023-03-23T05:19:19;11.50;99.90
19000;DHT22;9633;50.980;13.850;2023-03-23T05:20:51;11.60;99.90
19000;DHT22;9633;50.980;13.850;2023-03-23T05:22:27;11.50;99.90
19000;DHT22;9633;50.980;13.850;2023-03-23T05:23:58;11.60;99.90
19000;DHT22;9633;50.980;13.850;2023-03-23T05:25:32;11.70;99.90
19000;DHT22;9633;50.980;13.850;2023-03-23T05:27:13;11.80;99.90
19000;DHT22;9633;50.980;13.850;2023-03-23T05:28:50;11.80;99.90
19000;DHT22;9633;50.980;13.850;2023-03-23T05:30:29;11.80;99.90
19000;DHT22;9633;50.980;13.850;2023-03-23T05:32:02;11.80;99.90
19000;DHT22;9633;50.980;13.850;2023-03-23T05:33:38;11.80;99.90
19000;DHT22;9633;50.980;13.850;2023-03-23T05:35:16;11.80;99.90
19000;DHT22;9633;50.980;13.850;2023-03-23T05:36:49;11.70;99.90
19000;DHT22;9633;50.980;13.850;2023-03-23T05:38:33;11.70;99.90
19000;DHT22;9633;50.980;13.850;2023-03-23T05:40:09;11.70;99.90
19000;DHT22;9633;50.980;13.850;2023-03-23T05:41:58;11.70;99.90
19000;DHT22;9633;50.980;13.850;2023-03-23T05:43:41;11.70;99.90
19000;DHT22;9633;50.980;13.850;2023-03-23T05:45:22;11.70;99.90
19000;DHT22;9633;50.980;13.850;2023-03-23T05:46:56;11.70;99.90
19000;DHT22;9633;50.980;13.850;2023-03-23T05:48:28;11.80;99.90
19000;DHT22;9633;50.980;13.850;2023-03-23T05:50:00;11.80;99.90
19000;DHT22;9633;50.980;13.850;2023-03-23T05:51:35;11.80;99.90
19000;DHT22;9633;50.980;13.850;2023-03-23T05:53:07;11.90;99.90
19000;DHT22;9633;50.980;13.850;2023-03-23T05:54:42;11.90;99.90
19000;DHT22;9633;50.980;13.850;2023-03-23T05:56:15;12.00;99.90
19000;DHT22;9633;50.980;13.850;2023-03-23T05:58:26;12.00;99.90
19000;DHT22;9633;50.980;13.850;2023-03-23T06:00:00;12.20;99.90
19000;DHT22;9633;50.980;13.850;2023-03-23T06:01:43;12.20;99.90
19000;DHT22;9633;50.980;13.850;2023-03-23T06:03:15;12.30;99.90
19000;DHT22;9633;50.980;13.850;2023-03-23T06:04:54;12.30;99.90
19000;DHT22;9633;50.980;13.850;2023-03-23T06:06:37;12.40;99.90
19000;DHT22;9633;50.980;13.850;2023-03-23T06:08:14;12.40;99.90
19000;DHT22;9633;50.980;13.850;2023-03-23T06:09:46;12.50;99.90
19000;DHT22;9633;50.980;13.850;2023-03-23T06:11:27;12.50;99.90
19000;DHT22;9633;50.980;13.850;2023-03-23T06:13:17;12.60;99.90
19000;DHT22;9633;50.980;13.850;2023-03-23T06:14:52;12.60;99.90
19000;DHT22;9633;50.980;13.850;2023-03-23T06:16:33;12.60;99.90
19000;DHT22;9633;50.980;13.850;2023-03-23T06:18:10;12.60;99.90
19000;DHT22;9633;50.980;13.850;2023-03-23T06:19:53;12.60;99.90
19000;DHT22;9633;50.980;13.850;2023-03-23T06:21:26;12.50;99.90
19000;DHT22;9633;50.980;13.850;2023-03-23T06:23:21;12.50;99.90
19000;DHT22;9633;50.980;13.850;2023-03-23T06:24:55;12.60;99.90
19000;DHT22;9633;50.980;13.850;2023-03-23T06:26:38;12.70;99.90
19000;DHT22;9633;50.980;13.850;2023-03-23T06:28:15;12.90;99.90
19000;DHT22;9633;50.980;13.850;2023-03-23T06:29:51;13.20;99.90
19000;DHT22;9633;50.980;13.850;2023-03-23T06:31:25;13.40;99.90
19000;DHT22;9633;50.980;13.850;2023-03-23T06:32:59;13.70;99.90
19000;DHT22;9633;50.980;13.850;2023-03-23T06:34:57;14.30;99.90
19000;DHT22;9633;50.980;13.850;2023-03-23T06:36:48;14.70;99.90
19000;DHT22;9633;50.980;13.850;2023-03-23T06:38:30;15.00;99.90
19000;DHT22;9633;50.980;13.850;2023-03-23T06:40:03;15.00;99.90
19000;DHT22;9633;50.980;13.850;2023-03-23T06:41:41;15.40;99.90
19000;DHT22;9633;50.980;13.850;2023-03-23T06:43:13;15.60;99.90
19000;DHT22;9633;50.980;13.850;2023-03-23T06:45:02;15.70;99.90
19000;DHT22;9633;50.980;13.850;2023-03-23T06:46:35;15.80;99.90
19000;DHT22;9633;50.980;13.850;2023-03-23T06:48:38;16.00;99.90
19000;DHT22;9633;50.980;13.850;2023-03-23T06:50:11;16.00;99.90
19000;DHT22;9633;50.980;13.850;2023-03-23T06:51:44;15.90;99.90
19000;DHT22;9633;50.980;13.850;2023-03-23T06:53:17;15.80;99.90
19000;DHT22;9633;50.980;13.850;2023-03-23T06:54:52;15.70;99.90
19000;DHT22;9633;50.980;13.850;2023-03-23T06:56:25;15.70;99.90
19000;DHT22;9633;50.980;13.850;2023-03-23T06:57:58;15.70;99.90
19000;DHT22;9633;50.980;13.850;2023-03-23T06:59:32;15.60;99.90
19000;DHT22;9633;50.980;13.850;2023-03-23T07:01:05;15.60;99.90
19000;DHT22;9633;50.980;13.850;2023-03-23T07:02:50;15.50;99.90
19000;DHT22;9633;50.980;13.850;2023-03-23T07:04:25;15.50;99.90
19000;DHT22;9633;50.980;13.850;2023-03-23T07:06:06;15.50;99.90
19000;DHT22;9633;50.980;13.850;2023-03-23T07:07:43;15.50;99.90
19000;DHT22;9633;50.980;13.850;2023-03-23T07:09:34;15.50;99.90
19000;DHT22;9633;50.980;13.850;2023-03-23T07:11:07;15.50;99.90
19000;DHT22;9633;50.980;13.850;2023-03-23T07:12:40;15.50;99.90
19000;DHT22;9633;50.980;13.850;2023-03-23T07:14:14;15.50;99.90
19000;DHT22;9633;50.980;13.850;2023-03-23T07:15:47;15.50;99.90
19000;DHT22;9633;50.980;13.850;2023-03-23T07:17:21;15.50;99.90
19000;DHT22;9633;50.980;13.850;2023-03-23T07:19:24;15.60;99.90
19000;DHT22;9633;50.980;13.850;2023-03-23T07:20:56;15.70;99.90
19000;DHT22;9633;50.980;13.850;2023-03-23T07:22:33;15.90;99.90
19000;DHT22;9633;50.980;13.850;2023-03-23T07:24:13;16.00;99.90
19000;DHT22;9633;50.980;13.850;2023-03-23T07:26:17;16.20;99.90
19000;DHT22;9633;50.980;13.850;2023-03-23T07:27:57;16.40;99.90
19000;DHT22;9633;50.980;13.850;2023-03-23T07:29:29;16.60;99.90
19000;DHT22;9633;50.980;13.850;2023-03-23T07:31:10;16.60;99.90
19000;DHT22;9633;50.980;13.850;2023-03-23T07:32:42;16.60;99.90
19000;DHT22;9633;50.980;13.850;2023-03-23T07:34:14;16.70;99.90
19000;DHT22;9633;50.980;13.850;2023-03-23T07:36:14;16.80;99.90
19000;DHT22;9633;50.980;13.850;2023-03-23T07:37:48;16.80;99.90
19000;DHT22;9633;50.980;13.850;2023-03-23T07:39:21;16.80;99.90
19000;DHT22;9633;50.980;13.850;2023-03-23T07:40:57;16.90;99.90
19000;DHT22;9633;50.980;13.850;2023-03-23T07:45:40;16.80;99.90
19000;DHT22;9633;50.980;13.850;2023-03-23T07:47:13;16.70;99.90
19000;DHT22;9633;50.980;13.850;2023-03-23T07:50:19;16.70;99.90
19000;DHT22;9633;50.980;13.850;2023-03-23T07:51:54;16.60;99.90
19000;DHT22;9633;50.980;13.850;2023-03-23T07:53:27;16.70;99.90
19000;DHT22;9633;50.980;13.850;2023-03-23T07:55:11;16.70;99.90
19000;DHT22;9633;50.980;13.850;2023-03-23T07:57:05;16.70;99.90
19000;DHT22;9633;50.980;13.850;2023-03-23T07:58:42;16.70;99.90
19000;DHT22;9633;50.980;13.850;2023-03-23T08:00:18;16.80;99.90
19000;DHT22;9633;50.980;13.850;2023-03-23T08:01:52;16.80;99.90
19000;DHT22;9633;50.980;13.850;2023-03-23T08:03:53;16.70;99.90
19000;DHT22;9633;50.980;13.850;2023-03-23T08:05:51;16.70;99.90
19000;DHT22;9633;50.980;13.850;2023-03-23T08:07:36;16.80;99.90
19000;DHT22;9633;50.980;13.850;2023-03-23T08:09:37;16.80;99.90
19000;DHT22;9633;50.980;13.850;2023-03-23T08:11:32;16.70;99.90
19000;DHT22;9633;50.980;13.850;2023-03-23T08:13:36;16.70;99.90
19000;DHT22;9633;50.980;13.850;2023-03-23T08:15:24;16.70;99.90
19000;DHT22;9633;50.980;13.850;2023-03-23T08:16:57;16.70;99.90
19000;DHT22;9633;50.980;13.850;2023-03-23T08:18:52;16.80;99.90
19000;DHT22;9633;50.980;13.850;2023-03-23T08:20:38;16.90;99.90
19000;DHT22;9633;50.980;13.850;2023-03-23T08:22:35;16.90;99.90
19000;DHT22;9633;50.980;13.850;2023-03-23T08:24:41;16.80;99.90
19000;DHT22;9633;50.980;13.850;2023-03-23T08:26:18;16.80;99.90
19000;DHT22;9633;50.980;13.850;2023-03-23T08:28:03;16.80;99.90
19000;DHT22;9633;50.980;13.850;2023-03-23T08:29:46;16.70;99.90
19000;DHT22;9633;50.980;13.850;2023-03-23T08:31:27;16.60;99.90
19000;DHT22;9633;50.980;13.850;2023-03-23T08:33:07;16.60;99.90
19000;DHT22;9633;50.980;13.850;2023-03-23T08:34:57;16.60;99.90
19000;DHT22;9633;50.980;13.850;2023-03-23T08:40:43;16.60;99.90
19000;DHT22;9633;50.980;13.850;2023-03-23T08:42:42;16.50;99.90
19000;DHT22;9633;50.980;13.850;2023-03-23T08:44:15;16.50;99.90
19000;DHT22;9633;50.980;13.850;2023-03-23T08:46:03;16.40;99.90
19000;DHT22;9633;50.980;13.850;2023-03-23T08:47:51;16.40;99.90
19000;DHT22;9633;50.980;13.850;2023-03-23T08:49:53;16.30;99.90
19000;DHT22;9633;50.980;13.850;2023-03-23T08:51:52;16.30;99.90
19000;DHT22;9633;50.980;13.850;2023-03-23T08:53:54;16.30;99.90
19000;DHT22;9633;50.980;13.850;2023-03-23T08:55:45;16.40;99.90
19000;DHT22;9633;50.980;13.850;2023-03-23T08:57:55;16.40;99.90
19000;DHT22;9633;50.980;13.850;2023-03-23T08:59:46;16.50;99.90
19000;DHT22;9633;50.980;13.850;2023-03-23T09:01:28;16.50;99.90
19000;DHT22;9633;50.980;13.850;2023-03-23T09:03:24;16.50;99.90
19000;DHT22;9633;50.980;13.850;2023-03-23T09:05:21;16.50;99.90
19000;DHT22;9633;50.980;13.850;2023-03-23T09:07:15;16.60;99.90
19000;DHT22;9633;50.980;13.850;2023-03-23T09:08:47;16.40;99.90
19000;DHT22;9633;50.980;13.850;2023-03-23T09:10:21;16.40;99.90
19000;DHT22;9633;50.980;13.850;2023-03-23T09:11:53;16.40;99.90
19000;DHT22;9633;50.980;13.850;2023-03-23T09:13:26;16.40;99.90
19000;DHT22;9633;50.980;13.850;2023-03-23T09:14:58;16.30;99.90
19000;DHT22;9633;50.980;13.850;2023-03-23T09:16:34;16.40;99.90
19000;DHT22;9633;50.980;13.850;2023-03-23T09:18:06;16.40;99.90
19000;DHT22;9633;50.980;13.850;2023-03-23T09:19:38;16.50;99.90
19000;DHT22;9633;50.980;13.850;2023-03-23T09:21:10;16.50;99.90
19000;DHT22;9633;50.980;13.850;2023-03-23T09:22:45;16.50;99.90
19000;DHT22;9633;50.980;13.850;2023-03-23T09:24:17;16.50;99.90
19000;DHT22;9633;50.980;13.850;2023-03-23T09:25:51;16.60;99.90
19000;DHT22;9633;50.980;13.850;2023-03-23T09:27:23;16.60;99.90
19000;DHT22;9633;50.980;13.850;2023-03-23T09:28:56;16.70;99.90
19000;DHT22;9633;50.980;13.850;2023-03-23T09:30:30;16.60;99.90
19000;DHT22;9633;50.980;13.850;2023-03-23T09:32:03;16.50;99.90
19000;DHT22;9633;50.980;13.850;2023-03-23T09:33:35;16.60;99.90
19000;DHT22;9633;50.980;13.850;2023-03-23T09:35:08;16.60;99.90
19000;DHT22;9633;50.980;13.850;2023-03-23T09:36:42;16.60;99.90
19000;DHT22;9633;50.980;13.850;2023-03-23T09:38:14;16.60;99.90
19000;DHT22;9633;50.980;13.850;2023-03-23T09:39:47;16.60;99.90
19000;DHT22;9633;50.980;13.850;2023-03-23T09:41:48;16.60;99.90
19000;DHT22;9633;50.980;13.850;2023-03-23T09:43:48;16.30;99.90
19000;DHT22;9633;50.980;13.850;2023-03-23T09:45:25;16.20;99.90
19000;DHT22;9633;50.980;13.850;2023-03-23T09:47:05;16.20;99.90
19000;DHT22;9633;50.980;13.850;2023-03-23T09:48:46;16.20;99.90
19000;DHT22;9633;50.980;13.850;2023-03-23T09:50:23;16.20;99.90
19000;DHT22;9633;50.980;13.850;2023-03-23T09:52:01;16.10;99.90
19000;DHT22;9633;50.980;13.850;2023-03-23T09:53:37;16.10;99.90
19000;DHT22;9633;50.980;13.850;2023-03-23T09:55:13;16.00;99.90
19000;DHT22;9633;50.980;13.850;2023-03-23T09:56:48;16.00;99.90
19000;DHT22;9633;50.980;13.850;2023-03-23T09:58:26;16.00;99.90
19000;DHT22;9633;50.980;13.850;2023-03-23T10:00:02;16.10;99.90
19000;DHT22;9633;50.980;13.850;2023-03-23T10:01:45;16.00;99.90
19000;DHT22;9633;50.980;13.850;2023-03-23T10:03:21;15.90;99.90
19000;DHT22;9633;50.980;13.850;2023-03-23T10:05:11;16.00;99.90
19000;DHT22;9633;50.980;13.850;2023-03-23T10:06:47;16.00;99.90
19000;DHT22;9633;50.980;13.850;2023-03-23T10:08:20;15.90;99.90
19000;DHT22;9633;50.980;13.850;2023-03-23T10:09:55;15.90;99.90
19000;DHT22;9633;50.980;13.850;2023-03-23T10:11:37;16.00;99.90
19000;DHT22;9633;50.980;13.850;2023-03-23T10:13:20;16.00;99.90
19000;DHT22;9633;50.980;13.850;2023-03-23T10:15:04;16.00;99.90
19000;DHT22;9633;50.980;13.850;2023-03-23T10:16:40;16.10;99.90
19000;DHT22;9633;50.980;13.850;2023-03-23T10:18:17;16.00;99.90
19000;DHT22;9633;50.980;13.850;2023-03-23T10:19:56;16.20;99.90
19000;DHT22;9633;50.980;13.850;2023-03-23T10:21:35;16.20;99.90
19000;DHT22;9633;50.980;13.850;2023-03-23T10:23:13;16.20;99.90
19000;DHT22;9633;50.980;13.850;2023-03-23T10:24:51;16.10;99.90
19000;DHT22;9633;50.980;13.850;2023-03-23T10:26:33;16.10;99.90
19000;DHT22;9633;50.980;13.850;2023-03-23T10:28:10;16.10;99.90
19000;DHT22;9633;50.980;13.850;2023-03-23T10:29:48;16.30;99.90
19000;DHT22;9633;50.980;13.850;2023-03-23T10:31:26;16.30;99.90
19000;DHT22;9633;50.980;13.850;2023-03-23T10:33:03;16.50;99.90
19000;DHT22;9633;50.980;13.850;2023-03-23T10:34:41;16.60;99.90